Time;durP1;ratioP1;P1;durP2;ratioP2;P2;SDS_P1;SDS_P2;PMS_P1;PMS_P2;Temp;Humidity;BMP_temperature;BMP_pressure;BME280_temperature;BME280_humidity;BME280_pressure;Samples;Min_cycle;Max_cycle;Signal;HPM_P1;HPM_P2
2021/05/23 00:00:25;;;;;;;12.88;4.55;;;;;;;12.18;61.52;99443.06;4987818;28;20635;-73
2021/05/23 00:02:52;;;;;;;9.48;4.20;;;;;;;12.17;61.57;99449.34;4985519;28;20058;-74
2021/05/23 00:05:22;;;;;;;6.30;3.35;;;;;;;12.18;61.75;99451.03;4985098;28;20047;-73
2021/05/23 00:07:54;;;;;;;7.15;3.85;;;;;;;12.19;61.74;99442.09;4984320;28;20057;-73
2021/05/23 00:10:24;;;;;;;7.10;3.42;;;;;;;12.19;61.56;99442.94;4985190;28;20058;-73
2021/05/23 00:12:51;;;;;;;6.43;3.63;;;;;;;12.25;61.31;99438.88;4986200;28;20063;-73
2021/05/23 00:15:21;;;;;;;7.70;2.95;;;;;;;12.32;61.42;99441.81;4985358;28;20046;-72
2021/05/23 00:17:48;;;;;;;7.13;3.45;;;;;;;12.33;61.17;99438.16;4989024;28;20798;-74
2021/05/23 00:20:16;;;;;;;7.20;3.10;;;;;;;12.36;61.37;99443.19;4991666;28;20054;-72
2021/05/23 00:22:42;;;;;;;8.65;3.90;;;;;;;12.35;61.17;99441.50;4993010;28;20047;-72
2021/05/23 00:25:09;;;;;;;6.95;3.72;;;;;;;12.33;61.18;99441.63;4990043;28;20057;-72
2021/05/23 00:27:37;;;;;;;8.68;4.22;;;;;;;12.32;61.26;99447.94;4995126;28;20046;-74
2021/05/23 00:30:05;;;;;;;11.77;3.75;;;;;;;12.33;61.26;99449.59;4993204;28;20050;-72
2021/05/23 00:32:33;;;;;;;5.82;3.53;;;;;;;12.32;61.34;99458.53;4990273;28;20046;-73
2021/05/23 00:34:59;;;;;;;10.57;4.25;;;;;;;12.34;61.30;99455.75;4989558;28;20049;-74
2021/05/23 00:37:27;;;;;;;5.97;2.80;;;;;;;12.34;61.20;99461.84;4987110;28;20046;-74
2021/05/23 00:39:53;;;;;;;6.55;3.10;;;;;;;12.34;61.30;99461.84;4999980;28;20635;-73
2021/05/23 00:42:20;;;;;;;5.82;3.40;;;;;;;12.34;61.32;99466.31;4991913;28;20069;-73
2021/05/23 00:44:47;;;;;;;8.73;3.63;;;;;;;12.32;61.42;99463.81;4991315;28;20049;-74
2021/05/23 00:47:14;;;;;;;6.38;3.63;;;;;;;12.30;61.43;99460.47;5011513;28;20065;-75
2021/05/23 00:49:40;;;;;;;6.65;3.38;;;;;;;12.31;61.20;99471.91;5008321;28;20093;-74
2021/05/23 00:52:07;;;;;;;8.15;3.67;;;;;;;12.30;61.43;99471.06;5008535;28;20540;-73
2021/05/23 00:54:34;;;;;;;10.13;3.70;;;;;;;12.36;61.27;99475.78;5008858;28;20085;-72
2021/05/23 00:57:02;;;;;;;7.22;3.50;;;;;;;12.42;61.16;99472.59;5008858;28;20064;-74
2021/05/23 00:59:28;;;;;;;8.73;3.22;;;;;;;12.46;60.79;99472.28;5008334;28;20049;-73
2021/05/23 01:02:31;;;;;;;3.95;2.58;;;;;;;12.53;60.89;99468.09;5008473;28;20065;-73
2021/05/23 01:04:59;;;;;;;5.85;3.17;;;;;;;12.53;60.60;99468.94;5007185;28;20049;-73
2021/05/23 01:07:26;;;;;;;6.50;2.80;;;;;;;12.52;60.62;99469.09;5005954;28;20052;-73
2021/05/23 01:09:53;;;;;;;6.50;3.20;;;;;;;12.54;60.69;99477.72;5008594;28;20080;-72
2021/05/23 01:13:10;;;;;;;8.85;2.92;;;;;;;12.59;60.80;99476.31;5007301;28;20046;-73
2021/05/23 01:15:39;;;;;;;8.98;3.85;;;;;;;12.55;60.58;99480.22;5008267;28;20050;-72
2021/05/23 01:18:12;;;;;;;5.72;2.53;;;;;;;12.49;60.74;99477.31;5007697;28;20586;-73
2021/05/23 01:20:49;;;;;;;5.03;2.90;;;;;;;12.40;61.01;99479.81;5007421;28;20057;-74
2021/05/23 01:23:24;;;;;;;7.38;2.67;;;;;;;12.32;61.12;99484.19;5007915;28;20046;-72
2021/05/23 01:25:56;;;;;;;6.38;2.85;;;;;;;12.22;61.21;99484.16;5007244;28;20121;-74
2021/05/23 01:28:22;;;;;;;6.30;3.25;;;;;;;12.13;61.46;99491.13;5007795;28;20230;-72
2021/05/23 01:30:51;;;;;;;4.97;2.83;;;;;;;12.08;61.64;99487.25;5007076;28;20050;-72
2021/05/23 01:33:20;;;;;;;6.43;3.40;;;;;;;12.03;61.71;99491.16;5007069;28;20046;-72
2021/05/23 01:35:51;;;;;;;6.55;3.63;;;;;;;12.00;61.70;99491.41;5007301;28;20482;-73
2021/05/23 01:38:20;;;;;;;4.78;2.55;;;;;;;12.00;61.75;99495.88;5006423;28;20049;-74
2021/05/23 01:40:48;;;;;;;3.58;2.65;;;;;;;12.01;61.79;99493.09;5006933;28;20222;-74
2021/05/23 01:43:16;;;;;;;6.63;2.72;;;;;;;12.05;61.59;99491.84;5008020;28;20053;-72
2021/05/23 01:45:43;;;;;;;7.00;3.60;;;;;;;12.09;61.34;99494.22;5007785;28;20435;-74
2021/05/23 01:48:10;;;;;;;5.10;3.88;;;;;;;12.10;61.49;99495.88;5006646;28;20114;-72
2021/05/23 01:50:37;;;;;;;7.15;3.80;;;;;;;12.09;61.40;99507.44;5007781;28;20088;-73
2021/05/23 01:53:06;;;;;;;7.38;3.85;;;;;;;12.05;61.56;99504.25;4989776;28;20058;-73
2021/05/23 01:55:34;;;;;;;5.30;3.10;;;;;;;12.02;61.61;99504.50;5007147;28;20489;-74
2021/05/23 01:58:00;;;;;;;7.75;4.20;;;;;;;11.98;61.67;99503.13;5007856;28;20062;-74
2021/05/23 02:00:30;;;;;;;4.53;2.92;;;;;;;11.95;61.91;99506.88;5008014;28;20049;-73
2021/05/23 02:02:58;;;;;;;7.82;3.55;;;;;;;11.95;61.94;99506.88;5007991;28;20052;-74
2021/05/23 02:05:25;;;;;;;5.38;2.80;;;;;;;11.93;61.89;99510.66;5007550;28;20046;-72
2021/05/23 02:07:52;;;;;;;5.63;3.10;;;;;;;11.90;62.07;99502.94;5007078;28;20121;-74
2021/05/23 02:10:20;;;;;;;6.55;3.05;;;;;;;11.87;62.11;99506.72;5010332;28;20068;-74
2021/05/23 02:13:04;;;;;;;4.85;3.25;;;;;;;11.83;62.28;99513.25;5007731;28;20049;-72
2021/05/23 02:15:33;;;;;;;5.82;2.88;;;;;;;11.69;62.72;99506.53;5010160;28;20034;-73
2021/05/23 02:17:59;;;;;;;4.93;2.97;;;;;;;11.57;62.96;99505.00;5009242;28;20478;-72
2021/05/23 02:20:30;;;;;;;8.85;3.17;;;;;;;11.66;62.71;99498.88;5007466;28;20053;-73
2021/05/23 02:23:00;;;;;;;6.40;2.97;;;;;;;11.55;62.98;99502.47;5007176;28;20045;-72
2021/05/23 02:25:28;;;;;;;5.97;2.97;;;;;;;11.62;62.76;99508.91;5007108;28;20054;-72
2021/05/23 02:27:57;;;;;;;8.15;4.75;;;;;;;11.67;62.64;99504.03;5008047;28;20208;-73
2021/05/23 02:30:27;;;;;;;4.60;3.35;;;;;;;11.68;62.44;99502.22;5007013;28;20077;-73
2021/05/23 02:32:54;;;;;;;9.95;3.38;;;;;;;11.67;62.50;99501.38;5008948;28;20042;-73
2021/05/23 02:35:22;;;;;;;7.05;2.80;;;;;;;11.67;62.58;99498.75;5007476;28;20050;-73
2021/05/23 02:37:49;;;;;;;4.40;2.83;;;;;;;11.66;62.51;99499.72;5005674;28;20049;-73
2021/05/23 02:40:18;;;;;;;6.00;3.13;;;;;;;11.65;62.67;99497.22;5006550;28;20494;-73
2021/05/23 02:42:45;;;;;;;4.13;3.15;;;;;;;11.62;62.62;99503.59;5006301;28;20638;-73
2021/05/23 02:45:14;;;;;;;4.53;2.55;;;;;;;11.60;62.65;99505.56;5005915;28;20049;-73
2021/05/23 02:47:41;;;;;;;6.82;3.08;;;;;;;11.55;62.96;99512.22;5011062;28;20050;-72
2021/05/23 02:50:11;;;;;;;6.72;2.67;;;;;;;11.49;62.98;99516.25;5012616;28;20049;-75
2021/05/23 02:52:38;;;;;;;6.93;3.15;;;;;;;11.44;63.05;99521.94;5006144;28;20449;-72
2021/05/23 02:55:06;;;;;;;3.78;2.83;;;;;;;11.40;63.14;99527.66;5006548;28;20076;-72
2021/05/23 02:57:32;;;;;;;6.65;3.00;;;;;;;11.36;63.00;99523.56;5006324;28;20384;-75
2021/05/23 02:59:59;;;;;;;10.65;3.50;;;;;;;11.33;63.28;99518.56;5006765;28;20046;-71
2021/05/23 03:02:25;;;;;;;7.07;3.10;;;;;;;11.32;63.32;99530.09;5007382;28;20496;-72
2021/05/23 03:04:54;;;;;;;7.25;3.00;;;;;;;11.35;63.29;99532.50;5006223;28;20049;-72
2021/05/23 03:07:21;;;;;;;6.20;3.00;;;;;;;11.36;63.28;99527.06;5004537;28;20710;-72
2021/05/23 03:09:47;;;;;;;9.40;2.97;;;;;;;11.34;63.31;99529.00;5006372;28;20057;-76
2021/05/23 03:12:14;;;;;;;5.78;2.80;;;;;;;11.31;63.37;99524.00;5006126;28;20141;-74
2021/05/23 03:14:41;;;;;;;7.25;3.20;;;;;;;11.27;63.61;99523.44;5006533;28;20050;-73
2021/05/23 03:17:08;;;;;;;5.80;3.25;;;;;;;11.26;63.62;99519.09;5006854;28;20551;-74
2021/05/23 03:19:34;;;;;;;5.88;2.70;;;;;;;11.24;63.65;99521.03;5006741;28;20129;-71
2021/05/23 03:22:01;;;;;;;6.72;3.63;;;;;;;11.23;63.59;99523.81;5008278;28;20050;-72
2021/05/23 03:24:28;;;;;;;7.70;4.95;;;;;;;11.22;63.82;99517.69;5008521;28;20494;-72
2021/05/23 03:26:55;;;;;;;5.28;3.08;;;;;;;11.23;63.76;99519.34;5007769;28;20050;-74
2021/05/23 03:29:21;;;;;;;4.85;3.03;;;;;;;11.23;63.59;99514.06;5007697;28;20050;-74
2021/05/23 03:31:47;;;;;;;6.13;3.97;;;;;;;11.24;63.74;99509.63;5006014;28;20057;-74
2021/05/23 03:34:14;;;;;;;5.07;3.03;;;;;;;11.26;63.72;99512.97;5006598;28;20046;-73
2021/05/23 03:36:40;;;;;;;6.47;3.83;;;;;;;11.29;63.71;99515.38;5006592;28;20427;-73
2021/05/23 03:39:07;;;;;;;5.45;3.22;;;;;;;11.31;63.61;99520.50;5003962;28;20104;-72
2021/05/23 03:41:34;;;;;;;5.57;2.78;;;;;;;11.33;63.66;99519.41;5005543;28;20096;-73
2021/05/23 03:44:01;;;;;;;7.20;3.63;;;;;;;11.35;63.64;99524.56;5006103;28;20491;-74
2021/05/23 03:46:27;;;;;;;10.73;4.00;;;;;;;11.38;63.66;99518.97;5006023;28;20683;-74
2021/05/23 03:48:53;;;;;;;7.07;3.45;;;;;;;11.40;63.65;99525.81;5005236;28;20100;-73
2021/05/23 03:51:21;;;;;;;6.25;3.10;;;;;;;11.43;63.69;99525.56;5005463;28;20046;-73
2021/05/23 03:53:47;;;;;;;8.38;3.35;;;;;;;11.47;63.51;99524.31;5004785;28;20054;-72
2021/05/23 03:56:14;;;;;;;8.75;3.65;;;;;;;11.53;63.55;99532.69;5010337;28;20042;-71
2021/05/23 03:58:41;;;;;;;8.85;4.07;;;;;;;11.60;63.36;99529.34;5009597;28;20073;-73
2021/05/23 04:01:07;;;;;;;6.60;3.25;;;;;;;11.69;63.45;99529.53;5009204;28;20073;-73
2021/05/23 04:03:34;;;;;;;7.47;3.15;;;;;;;11.75;63.34;99536.91;5009035;28;20060;-72
2021/05/23 04:06:00;;;;;;;6.43;2.85;;;;;;;11.82;63.18;99536.22;5009301;28;20485;-73
2021/05/23 04:08:26;;;;;;;5.00;2.65;;;;;;;11.92;62.99;99538.06;5007377;28;20579;-72
2021/05/23 04:10:57;;;;;;;6.80;3.60;;;;;;;11.98;62.76;99545.47;5009304;28;20049;-73
2021/05/23 04:13:25;;;;;;;5.15;2.75;;;;;;;12.09;62.60;99547.16;5009516;28;20178;-75
2021/05/23 04:15:53;;;;;;;6.63;3.58;;;;;;;12.18;62.41;99541.03;5007844;28;20049;-73
2021/05/23 04:18:19;;;;;;;7.15;3.28;;;;;;;12.30;62.31;99549.66;5009181;28;20550;-73
2021/05/23 04:20:45;;;;;;;5.85;3.65;;;;;;;12.41;62.12;99542.41;5009029;28;20073;-74
2021/05/23 04:23:12;;;;;;;8.13;2.50;;;;;;;12.61;61.91;99539.75;5010307;28;20565;-72
2021/05/23 04:25:38;;;;;;;5.78;2.92;;;;;;;12.78;61.23;99539.03;5008867;28;20401;-75
2021/05/23 04:28:05;;;;;;;6.88;2.85;;;;;;;13.02;60.72;99540.34;5010155;28;20056;-72
2021/05/23 04:30:32;;;;;;;2.85;2.20;;;;;;;13.25;60.17;99547.94;5010874;28;20053;-71
2021/05/23 04:32:59;;;;;;;4.15;2.35;;;;;;;13.48;59.59;99540.47;5010512;28;20088;-73
2021/05/23 04:35:26;;;;;;;5.50;2.65;;;;;;;13.97;58.10;99541.00;5010289;28;20104;-74
2021/05/23 04:37:54;;;;;;;4.10;2.85;;;;;;;14.72;56.96;99538.84;5009114;28;20042;-72
2021/05/23 04:40:20;;;;;;;5.90;2.60;;;;;;;16.20;53.48;99541.28;5011077;28;20050;-73
2021/05/23 04:42:47;;;;;;;5.28;3.03;;;;;;;17.58;50.28;99538.59;5011278;28;20046;-74
2021/05/23 04:45:15;;;;;;;5.03;2.35;;;;;;;17.99;49.36;99545.56;5010062;28;20042;-70
2021/05/23 04:47:42;;;;;;;4.72;2.28;;;;;;;17.95;49.33;99547.75;5011464;28;20049;-74
2021/05/23 04:50:10;;;;;;;4.40;2.35;;;;;;;17.99;48.76;99557.09;5010630;28;20056;-75
2021/05/23 04:52:37;;;;;;;3.58;2.33;;;;;;;17.93;48.89;99560.44;5011270;28;20500;-76
2021/05/23 04:55:04;;;;;;;5.65;2.95;;;;;;;17.64;49.15;99561.91;5012399;28;20050;-72
2021/05/23 04:57:30;;;;;;;5.38;2.53;;;;;;;17.27;49.89;99567.88;5016259;28;20042;-72
2021/05/23 04:59:57;;;;;;;5.55;2.78;;;;;;;17.35;49.69;99566.03;5027521;28;20050;-79
2021/05/23 05:05:08;;;;;;;8.23;2.40;;;;;;;19.19;45.37;99561.78;5022854;28;20526;-75
2021/05/23 05:07:35;;;;;;;6.80;2.22;;;;;;;19.97;44.21;99574.72;5020355;28;20042;-75
2021/05/23 05:10:03;;;;;;;4.47;2.20;;;;;;;20.94;42.33;99570.72;5023571;28;20045;-73
2021/05/23 05:12:29;;;;;;;5.78;2.17;;;;;;;21.58;40.66;99570.50;5023793;28;20416;-76
2021/05/23 05:14:56;;;;;;;4.55;1.90;;;;;;;22.21;39.67;99574.84;5022488;28;20146;-75
2021/05/23 05:17:23;;;;;;;8.70;2.58;;;;;;;22.49;38.82;99568.50;5021853;28;20080;-78
2021/05/23 05:19:49;;;;;;;3.15;1.85;;;;;;;22.88;37.85;99570.38;5021953;28;20046;-75
2021/05/23 05:22:16;;;;;;;4.90;2.05;;;;;;;23.27;37.29;99560.59;5020261;28;20056;-77
2021/05/23 05:24:45;;;;;;;4.38;1.83;;;;;;;23.35;36.99;99573.00;5027132;28;20050;-79
2021/05/23 05:27:11;;;;;;;5.43;2.50;;;;;;;23.54;36.61;99571.31;5023597;28;20098;-80
2021/05/23 05:29:38;;;;;;;3.65;1.88;;;;;;;23.83;35.59;99575.38;5022919;28;20054;-76
2021/05/23 05:32:13;;;;;;;5.85;1.77;;;;;;;24.08;35.38;99577.31;5023671;28;20125;-80
2021/05/23 05:34:39;;;;;;;;;;;;;;;24.51;35.68;99573.94;5023378;28;20050;-73
2021/05/23 05:37:06;;;;;;;4.07;2.10;;;;;;;24.31;34.89;99584.88;5020036;28;19917;-77
2021/05/23 05:39:32;;;;;;;4.68;1.65;;;;;;;24.36;34.53;99576.09;5020517;28;20082;-78
2021/05/23 05:42:00;;;;;;;5.88;2.15;;;;;;;24.33;34.26;99577.38;5018803;28;20065;-78
2021/05/23 05:44:26;;;;;;;5.80;1.70;;;;;;;24.42;34.11;99575.25;5016818;28;20050;-79
2021/05/23 05:46:53;;;;;;;3.40;1.80;;;;;;;24.49;34.25;99573.31;5010709;28;20486;-78
2021/05/23 05:49:20;;;;;;;6.18;1.92;;;;;;;24.38;34.14;99582.09;5011273;28;20046;-79
2021/05/23 05:51:47;;;;;;;3.53;1.77;;;;;;;23.50;34.79;99585.41;5011736;28;20125;-79
2021/05/23 05:54:13;;;;;;;3.03;1.80;;;;;;;22.02;36.45;99591.75;5018403;28;20054;-76
2021/05/23 05:56:40;;;;;;;2.65;1.98;;;;;;;20.84;38.62;99592.53;5008947;28;20056;-75
2021/05/23 05:59:09;;;;;;;4.88;2.40;;;;;;;19.98;40.07;99587.94;5006598;28;20045;-76
2021/05/23 06:01:36;;;;;;;2.78;1.30;;;;;;;19.26;41.36;99594.81;5008333;28;20057;-75
2021/05/23 06:04:03;;;;;;;3.95;2.17;;;;;;;18.86;42.08;99593.41;5008696;28;20470;-74
2021/05/23 06:06:29;;;;;;;6.65;2.00;;;;;;;18.48;42.83;99602.19;5007594;28;20053;-73
2021/05/23 06:08:56;;;;;;;3.15;1.70;;;;;;;18.14;43.81;99606.09;4988626;28;20054;-71
2021/05/23 06:11:22;;;;;;;6.00;2.10;;;;;;;17.85;44.24;99600.56;5007899;28;20068;-73
2021/05/23 06:13:48;;;;;;;6.45;2.20;;;;;;;17.71;44.76;99597.59;5013301;28;20129;-70
2021/05/23 06:16:17;;;;;;;7.18;1.63;;;;;;;17.81;45.06;99599.22;5012803;28;20053;-70
2021/05/23 06:18:45;;;;;;;4.15;2.28;;;;;;;18.21;43.74;99611.56;5007331;28;20094;-72
2021/05/23 06:21:15;;;;;;;9.55;2.40;;;;;;;18.82;42.54;99608.97;5012545;28;20049;-72
2021/05/23 06:23:42;;;;;;;5.90;2.28;;;;;;;19.12;41.98;99602.84;5014537;28;20060;-74
2021/05/23 06:26:13;;;;;;;5.30;2.13;;;;;;;19.28;42.05;99605.34;5008415;28;20122;-75
2021/05/23 06:28:43;;;;;;;4.45;1.98;;;;;;;19.32;42.42;99606.66;5008484;28;20126;-76
2021/05/23 06:31:09;;;;;;;4.53;2.15;;;;;;;19.39;42.06;99614.78;5012100;28;20072;-73
2021/05/23 06:33:37;;;;;;;4.80;1.83;;;;;;;19.36;42.06;99602.59;5007391;28;20056;-77
2021/05/23 06:36:04;;;;;;;2.55;1.90;;;;;;;19.28;42.11;99600.84;5011895;28;20486;-73
2021/05/23 06:38:31;;;;;;;8.88;1.95;;;;;;;19.17;42.33;99606.63;4989213;28;20048;-73
2021/05/23 06:40:57;;;;;;;4.22;2.13;;;;;;;19.09;42.65;99609.41;5007997;28;20060;-73
2021/05/23 06:43:25;;;;;;;4.03;1.50;;;;;;;18.93;42.59;99615.75;5010856;28;20054;-75
2021/05/23 06:45:52;;;;;;;6.32;1.98;;;;;;;18.77;43.00;99615.84;4962492;28;20641;-75
2021/05/23 06:48:20;;;;;;;4.40;1.58;;;;;;;18.75;43.61;99615.22;4991572;28;20042;-73
2021/05/23 06:50:49;;;;;;;4.10;2.10;;;;;;;18.83;43.70;99618.66;5006353;28;20662;-74
2021/05/23 06:53:19;;;;;;;2.67;1.60;;;;;;;18.99;43.12;99625.72;5008250;28;20062;-76
2021/05/23 06:55:46;;;;;;;3.15;1.98;;;;;;;18.93;42.97;99625.63;5006837;28;20041;-72
2021/05/23 06:58:19;;;;;;;2.80;2.05;;;;;;;18.78;43.19;99623.72;5004082;28;20050;-73
2021/05/23 07:00:46;;;;;;;4.15;2.20;;;;;;;18.79;43.52;99616.50;5006543;28;20056;-70
2021/05/23 07:03:13;;;;;;;1.65;1.00;;;;;;;18.64;43.02;99625.31;4987712;28;20442;-73
2021/05/23 07:05:40;;;;;;;3.50;0.93;;;;;;;18.57;43.49;99631.56;5007951;28;20061;-72
2021/05/23 07:08:08;;;;;;;1.63;0.98;;;;;;;18.41;43.06;99638.69;5003798;28;20136;-72
2021/05/23 07:10:36;;;;;;;4.50;1.60;;;;;;;18.22;42.25;99633.78;5006028;28;20513;-72
2021/05/23 07:13:03;;;;;;;1.70;1.35;;;;;;;18.20;42.97;99630.44;5005461;28;20046;-72
2021/05/23 07:15:29;;;;;;;1.88;1.10;;;;;;;18.28;43.36;99644.59;5004991;28;20406;-73
2021/05/23 07:17:58;;;;;;;2.25;0.90;;;;;;;18.44;42.84;99648.16;5004392;28;20046;-73
2021/05/23 07:20:25;;;;;;;3.78;0.88;;;;;;;18.56;42.76;99644.09;5010974;28;20045;-73
2021/05/23 07:22:54;;;;;;;5.50;1.75;;;;;;;18.61;42.39;99651.59;5012731;28;20136;-74
2021/05/23 07:25:22;;;;;;;1.83;1.00;;;;;;;18.63;42.01;99641.53;5008156;28;20041;-76
2021/05/23 07:27:48;;;;;;;0.90;0.90;;;;;;;18.58;41.72;99649.25;5007605;28;20042;-73
2021/05/23 07:30:17;;;;;;;3.88;2.30;;;;;;;18.47;40.21;99635.28;5005955;28;20124;-75
2021/05/23 07:32:43;;;;;;;3.15;1.77;;;;;;;18.29;40.96;99651.63;5005238;28;20056;-74
2021/05/23 07:35:13;;;;;;;5.30;1.48;;;;;;;18.59;41.59;99658.97;5004951;28;20046;-72
2021/05/23 07:37:40;;;;;;;3.60;1.33;;;;;;;18.94;42.09;99651.34;4999364;28;20034;-75
2021/05/23 07:40:07;;;;;;;2.03;1.10;;;;;;;19.47;40.88;99671.75;5002267;28;20066;-75
2021/05/23 07:42:34;;;;;;;3.58;1.27;;;;;;;19.71;40.13;99660.97;5004585;28;20671;-74
2021/05/23 07:45:01;;;;;;;3.33;1.55;;;;;;;19.61;40.25;99661.25;4988053;28;20125;-73
2021/05/23 07:47:28;;;;;;;3.22;1.05;;;;;;;19.49;41.02;99658.19;5003966;28;20077;-73
2021/05/23 07:49:54;;;;;;;2.92;1.67;;;;;;;19.26;38.41;99651.03;5005994;28;20050;-73
2021/05/23 07:52:23;;;;;;;4.40;2.00;;;;;;;18.94;38.65;99644.16;5004012;28;20643;-73
2021/05/23 07:54:51;;;;;;;3.33;1.70;;;;;;;18.82;39.46;99651.78;4987832;28;20125;-74
2021/05/23 07:57:19;;;;;;;2.85;1.73;;;;;;;18.70;39.80;99653.19;5002949;28;20689;-77
2021/05/23 07:59:46;;;;;;;3.08;1.38;;;;;;;18.58;39.67;99660.78;5003101;28;20054;-73
2021/05/23 08:02:13;;;;;;;3.45;1.00;;;;;;;18.69;40.26;99672.91;5004793;28;20217;-73
2021/05/23 08:04:39;;;;;;;3.25;1.10;;;;;;;18.90;39.90;99670.44;5002611;28;20054;-72
2021/05/23 08:07:05;;;;;;;1.65;1.17;;;;;;;19.17;40.06;99670.88;5002472;28;20516;-74
2021/05/23 08:09:35;;;;;;;2.33;1.02;;;;;;;19.26;39.72;99680.50;5002282;28;20050;-73
2021/05/23 08:12:01;;;;;;;5.22;1.58;;;;;;;19.10;39.58;99675.28;5003748;28;20187;-74
2021/05/23 08:14:28;;;;;;;2.50;0.88;;;;;;;19.38;40.05;99675.53;5002653;28;20053;-71
2021/05/23 08:16:58;;;;;;;2.20;0.77;;;;;;;19.68;38.98;99679.09;5004706;28;20054;-72
2021/05/23 08:19:24;;;;;;;4.32;1.30;;;;;;;19.61;37.30;99680.84;5002615;28;20112;-74
2021/05/23 08:21:51;;;;;;;2.42;0.60;;;;;;;19.56;38.47;99677.88;5002066;28;20050;-73
2021/05/23 08:24:17;;;;;;;7.20;1.25;;;;;;;19.88;38.31;99685.75;5004473;28;20054;-75
2021/05/23 08:26:44;;;;;;;4.03;0.98;;;;;;;20.11;38.05;99691.00;5003109;28;20118;-75
2021/05/23 08:29:10;;;;;;;3.53;1.17;;;;;;;20.37;37.66;99685.13;5001763;28;20327;-74
2021/05/23 08:31:37;;;;;;;8.90;1.08;;;;;;;20.53;37.61;99692.13;5004957;28;20157;-72
2021/05/23 08:34:04;;;;;;;8.63;1.45;;;;;;;20.61;37.20;99683.97;5001829;28;20050;-73
2021/05/23 08:36:33;;;;;;;1.77;1.42;;;;;;;20.69;37.16;99685.69;5002928;28;20068;-72
2021/05/23 08:39:00;;;;;;;4.75;1.17;;;;;;;21.00;36.56;99691.59;4999860;28;20061;-72
2021/05/23 08:41:26;;;;;;;1.45;0.82;;;;;;;20.88;35.84;99701.16;5003024;28;20053;-74
2021/05/23 08:43:54;;;;;;;0.70;0.70;;;;;;;20.94;36.27;99688.81;5005644;28;20573;-70
2021/05/23 08:46:21;;;;;;;4.38;1.15;;;;;;;20.95;35.52;99685.13;5006703;28;20092;-71
2021/05/23 08:48:48;;;;;;;6.13;2.20;;;;;;;20.69;35.26;99696.44;4969114;28;20090;-70
2021/05/23 08:51:18;;;;;;;2.13;1.00;;;;;;;20.47;35.34;99692.88;5007876;28;20046;-70
2021/05/23 08:53:46;;;;;;;4.30;0.95;;;;;;;20.72;35.75;99693.38;5005578;28;20056;-72
2021/05/23 08:56:13;;;;;;;1.50;0.88;;;;;;;21.22;35.14;99691.56;5002324;28;20042;-72
2021/05/23 08:58:45;;;;;;;1.90;0.80;;;;;;;21.39;35.06;99681.34;5003017;28;20046;-73
2021/05/23 09:01:24;;;;;;;3.60;0.90;;;;;;;21.53;35.47;99683.13;4953243;28;20054;-72
2021/05/23 09:03:57;;;;;;;4.18;1.10;;;;;;;21.64;34.96;99691.66;5003626;28;20045;-73
2021/05/23 09:06:29;;;;;;;2.53;1.13;;;;;;;21.79;34.71;99678.97;4988170;28;20045;-72
2021/05/23 09:09:00;;;;;;;1.85;0.93;;;;;;;21.71;34.47;99676.41;5002136;28;20116;-72
2021/05/23 09:11:28;;;;;;;2.72;1.05;;;;;;;21.91;34.21;99685.44;5005796;28;20133;-73
2021/05/23 09:13:56;;;;;;;2.13;1.27;;;;;;;21.92;34.51;99681.69;5004508;28;20057;-69
2021/05/23 09:16:23;;;;;;;3.78;1.20;;;;;;;22.24;34.46;99684.75;5004681;28;20734;-71
2021/05/23 09:18:52;;;;;;;3.00;1.33;;;;;;;22.52;33.69;99686.50;5006868;28;20053;-72
2021/05/23 09:21:22;;;;;;;2.60;1.65;;;;;;;22.46;34.29;99690.03;5006397;28;20138;-71
2021/05/23 09:23:51;;;;;;;4.82;1.52;;;;;;;22.40;34.52;99683.59;4984886;28;20050;-71
2021/05/23 09:26:21;;;;;;;3.55;1.35;;;;;;;21.96;33.01;99682.13;5005530;28;20046;-71
2021/05/23 09:28:49;;;;;;;2.50;0.73;;;;;;;21.20;33.90;99696.28;4988056;28;20615;-70
2021/05/23 09:31:18;;;;;;;4.78;0.95;;;;;;;20.98;34.42;99695.50;5002257;28;20148;-71
2021/05/23 09:33:47;;;;;;;1.08;0.80;;;;;;;20.80;35.36;99701.31;5020774;28;20309;-69
2021/05/23 09:36:13;;;;;;;1.88;0.95;;;;;;;20.61;35.53;99697.38;5026196;28;20076;-70
2021/05/23 09:38:55;;;;;;;2.38;1.17;;;;;;;20.47;35.00;99698.22;5021284;28;20068;-72
2021/05/23 09:41:24;;;;;;;5.00;1.13;;;;;;;20.25;35.11;99679.41;5021577;28;20038;-73
2021/05/23 09:43:52;;;;;;;2.97;1.10;;;;;;;19.93;36.20;99686.84;5024260;28;20049;-74
2021/05/23 09:46:20;;;;;;;2.30;0.88;;;;;;;19.89;36.11;99680.22;4971998;28;20065;-79
2021/05/23 09:48:50;;;;;;;7.28;0.70;;;;;;;20.00;36.92;99695.81;5023879;28;20033;-77
2021/05/23 09:51:18;;;;;;;3.33;1.13;;;;;;;20.13;36.32;99699.69;5011573;28;20037;-71
2021/05/23 09:53:57;;;;;;;2.05;1.30;;;;;;;20.43;36.20;99712.00;5024935;28;20042;-72
2021/05/23 09:56:32;;;;;;;3.35;0.90;;;;;;;20.81;36.11;99711.84;5026819;28;20038;-71
2021/05/23 09:58:59;;;;;;;;;;;;;;;21.20;35.59;99715.91;5028396;28;20053;-69
2021/05/23 10:01:32;;;;;;;2.53;1.13;;;;;;;21.28;35.29;99722.16;5028638;28;19922;-81
2021/05/23 10:04:01;;;;;;;2.95;1.85;;;;;;;21.57;34.87;99715.81;5025502;28;20512;-74
2021/05/23 10:06:28;;;;;;;3.58;1.42;;;;;;;22.01;34.38;99708.44;5012033;28;20110;-74
2021/05/23 10:08:55;;;;;;;2.70;0.70;;;;;;;22.29;34.25;99725.34;5011538;28;20413;-70
2021/05/23 10:11:21;;;;;;;2.97;1.15;;;;;;;22.42;33.27;99724.56;5011938;28;20046;-74
2021/05/23 10:13:51;;;;;;;1.63;0.73;;;;;;;22.56;32.75;99717.34;5007943;28;20045;-73
2021/05/23 10:16:18;;;;;;;4.38;1.05;;;;;;;22.41;32.52;99732.84;5008464;28;20638;-74
2021/05/23 10:18:45;;;;;;;2.83;1.30;;;;;;;22.13;32.10;99721.13;5011471;28;20049;-74
2021/05/23 10:21:13;;;;;;;3.78;0.93;;;;;;;22.62;32.29;99718.44;5010038;28;20655;-73
2021/05/23 10:23:44;;;;;;;1.65;0.77;;;;;;;22.97;32.30;99718.28;5010583;28;20054;-81
2021/05/23 10:26:13;;;;;;;3.83;0.85;;;;;;;22.98;32.05;99728.03;5007772;28;20045;-78
2021/05/23 10:28:45;;;;;;;2.83;0.75;;;;;;;22.71;32.33;99720.72;5013523;28;20108;-79
2021/05/23 10:31:14;;;;;;;1.67;1.02;;;;;;;22.32;30.86;99714.19;5012522;28;20050;-78
2021/05/23 10:33:52;;;;;;;2.92;0.73;;;;;;;21.65;32.37;99717.53;5008867;28;20149;-78
2021/05/23 10:36:41;;;;;;;1.35;1.00;;;;;;;21.76;33.31;99741.16;5010533;28;20049;-79
2021/05/23 10:39:13;;;;;;;3.50;1.33;;;;;;;21.83;33.00;99744.72;5009617;28;20077;-81
2021/05/23 10:41:41;;;;;;;1.70;1.08;;;;;;;21.89;33.12;99743.09;5002874;28;20129;-72
2021/05/23 10:44:12;;;;;;;2.00;1.15;;;;;;;21.78;33.16;99733.72;5003193;28;20058;-75
2021/05/23 10:46:50;;;;;;;2.17;1.95;;;;;;;21.98;32.63;99733.03;5004540;28;20049;-75
2021/05/23 10:49:16;;;;;;;1.20;0.68;;;;;;;22.34;33.16;99722.03;5000862;28;20081;-70
2021/05/23 10:51:52;;;;;;;3.88;1.17;;;;;;;22.44;32.07;99735.13;4999461;28;20046;-70
2021/05/23 10:54:20;;;;;;;2.45;1.40;;;;;;;21.84;31.66;99732.97;4998507;28;20041;-70
2021/05/23 10:56:46;;;;;;;1.70;0.73;;;;;;;21.54;32.84;99735.84;5002155;28;20224;-75
2021/05/23 10:59:14;;;;;;;1.52;0.80;;;;;;;22.01;33.12;99730.78;5000545;28;20120;-73
2021/05/23 11:01:42;;;;;;;4.38;2.28;;;;;;;22.37;32.72;99742.34;5002930;28;20049;-78
2021/05/23 11:04:13;;;;;;;3.75;1.27;;;;;;;22.31;32.03;99730.53;5005257;28;20069;-76
2021/05/23 11:06:41;;;;;;;3.53;0.80;;;;;;;22.31;32.74;99734.06;5007610;28;20060;-73
2021/05/23 11:09:10;;;;;;;3.83;1.17;;;;;;;22.51;32.36;99736.00;5007921;28;20060;-75
2021/05/23 11:11:37;;;;;;;4.38;2.35;;;;;;;22.71;32.70;99741.44;5008751;28;20045;-75
2021/05/23 11:14:17;;;;;;;2.13;1.08;;;;;;;22.89;31.82;99743.53;5005588;28;20133;-77
2021/05/23 11:16:48;;;;;;;2.75;0.93;;;;;;;22.87;32.32;99754.53;5005411;28;20685;-79
2021/05/23 11:19:17;;;;;;;2.85;0.75;;;;;;;22.87;31.82;99737.53;5004227;28;20042;-77
2021/05/23 11:21:45;;;;;;;2.45;1.02;;;;;;;22.89;31.18;99735.47;5005442;28;20049;-73
2021/05/23 11:24:11;;;;;;;2.45;0.90;;;;;;;23.06;31.15;99734.06;4994526;28;20049;-72
2021/05/23 11:26:39;;;;;;;2.97;1.23;;;;;;;23.12;31.32;99734.28;4980053;28;20054;-68
2021/05/23 11:29:08;;;;;;;3.63;2.88;;;;;;;23.12;31.31;99735.13;4989113;28;20078;-71
2021/05/23 11:31:37;;;;;;;3.47;0.93;;;;;;;23.11;31.16;99729.94;4979647;28;20054;-70
2021/05/23 11:34:05;;;;;;;3.13;0.80;;;;;;;23.22;31.40;99723.94;4979984;28;20056;-71
2021/05/23 11:36:34;;;;;;;4.78;0.90;;;;;;;23.39;30.34;99735.97;4978855;28;20054;-70
2021/05/23 11:39:03;;;;;;;2.80;0.82;;;;;;;23.35;30.42;99732.00;4985358;28;20396;-70
2021/05/23 11:41:32;;;;;;;1.48;1.00;;;;;;;22.85;30.00;99724.28;4988155;28;20124;-72